Aberdeen Regional Airport Aberdeen US
ICAO: KABR
IATA: ABR
Category: Medium
Scheduled Services: Yes

Elevation: 1302 ft
TransAlt. 18000 ft.

Airport Communications:
ASOS:125.875
MINNEAPOLIS CNTR:120.6
CTAF:122.7
HURON RDO:122.4
UNICOM:122.95

KABR Zoom In..

If you have problems with the map follow the link
https://www.worldairports.se/pages/airport.php?
ICAO=KABR

Runways:

(A) RW 13 length 6901 ft width 100 ft
---- / hdg 128

(B) RW 17 length 5500 ft width 100 ft
---- / hdg 173

(C) RW 31 length 6901 ft width 100 ft
ILS 109.90 / hdg 308

(D) RW 35 length 5500 ft width 100 ft
---- / hdg 353

Location; KABR
Day. 17 / Time. 02.53 Zulu
* Altimeter: 30.27
* Temperature: -08° c. -17.6°f.
* Wind from: 020° Speed 19 kn.
Dewpoint: -11° c.
Visibility: 4 Statute Miles.
Clouds: Overcast 3800 ft.
Conditions: Light Snow.

KABR 170253Z AUTO 02019KT 4SM -SN OVC038 M08/M11 A3027 RMK AO2 PK WND 02027/0230 SLP273 P0000 60001 T10781106 51027 $


Wind From 020°
Speed 19 kn.

 
 
jpsmedia.com for Web Design worldairports.se 2018   terms of use